Spirit of New Zealand — ZMSV — position and weather

sailwx.info

Track history (hours):
 
Tides and Currents Weather Stations Pressure Air Temp Water Temp Dewpoint Dewpoint Depression Visibility Wind Speed Wind Dir Waves Ship Positions

Spirit of New Zealand

Last reported at 2017-Oct-22 14:43 UTC. Time now 2017-Oct-22 19:21 UTC.
Position S 36°48' E 174°57'.

Length 45 m; draft 4.1 m.

Type: Passenger vessel. MMSI: 512201000.

Date/timePositionNaut miles runAvg speedWind from/ knotsBaromVisibWave heightAir tempDewpointWater temp
2017-Oct-22 14:43S 36°48' E 174°57'0 0.0
2017-Oct-22 14:24S 36°48' E 174°57'0 0.0
2017-Oct-22 08:26S 36°48' E 174°57'0 0.1
2017-Oct-22 07:31S 36°48' E 174°57'0 0.0
2017-Oct-22 07:28S 36°48' E 174°57'0 0.0
2017-Oct-22 07:00S 36°48' E 174°57'0 0.0
2017-Oct-22 06:30S 36°48' E 174°57'0 0.0
2017-Oct-22 04:50S 36°48' E 174°57'0 0.1
2017-Oct-22 04:30S 36°48' E 174°57'0 0.1
2017-Oct-22 04:00S 36°48' E 174°57'1 0.3
2017-Oct-21 23:58S 36°49' E 174°58'4 8.0
2017-Oct-21 23:30S 36°45' E 174°57'4 7.3
2017-Oct-21 22:59S 36°42' E 174°55'4 7.7
2017-Oct-21 22:30S 36°38' E 174°53'4 7.6
2017-Oct-21 22:00S 36°35' E 174°51'4 7.3
2017-Oct-21 21:30S 36°33' E 174°47'4 7.3
2017-Oct-21 21:00S 36°30' E 174°44'0 0.3
2017-Oct-21 20:22S 36°30' E 174°44'0 0.0
2017-Oct-21 19:58S 36°30' E 174°44'0 0.1
2017-Oct-21 19:28S 36°30' E 174°44'0 0.1
2017-Oct-21 18:58S 36°30' E 174°44'0 0.0
2017-Oct-21 18:28S 36°30' E 174°44'0 0.0
2017-Oct-21 17:58S 36°30' E 174°44'0 0.0
2017-Oct-21 17:28S 36°30' E 174°44'0 0.1
2017-Oct-21 16:58S 36°30' E 174°44'0 0.0
2017-Oct-21 16:22S 36°30' E 174°44'0 0.0
2017-Oct-21 15:58S 36°30' E 174°44'0 0.0
2017-Oct-21 14:22S 36°30' E 174°44'0 0.1
2017-Oct-21 13:28S 36°30' E 174°44'0 0.0
2017-Oct-21 11:40S 36°30' E 174°44'0 0.0
2017-Oct-21 11:10S 36°30' E 174°44'0 0.0
2017-Oct-21 09:52S 36°30' E 174°44'0 0.0
2017-Oct-21 09:28S 36°30' E 174°44'0 0.1
2017-Oct-21 08:58S 36°30' E 174°44'0 0.0
2017-Oct-21 08:28S 36°30' E 174°44'0 0.0
2017-Oct-21 07:58S 36°30' E 174°44'0 0.0
2017-Oct-21 07:28S 36°30' E 174°44'0 0.1
2017-Oct-21 06:58S 36°30' E 174°44'0 0.1
2017-Oct-21 06:28S 36°30' E 174°44'0 0.0
2017-Oct-21 05:58S 36°30' E 174°44'0 0.1
2017-Oct-21 05:28S 36°30' E 174°44'0 0.1
2017-Oct-21 04:58S 36°30' E 174°44'0 0.0
2017-Oct-21 04:28S 36°30' E 174°44'0 0.1
2017-Oct-21 03:58S 36°30' E 174°44'0 0.3
2017-Oct-21 03:14S 36°30' E 174°44'0 0.2
2017-Oct-21 02:56S 36°30' E 174°44'0 0.0
2017-Oct-20 21:32S 36°30' E 174°44'0 0.1
2017-Oct-20 21:28S 36°30' E 174°44'1 2.2
2017-Oct-20 21:00S 36°30' E 174°45'3 5.9
2017-Oct-20 20:30S 36°27' E 174°46'0 0.6
2017-Oct-20 20:00S 36°28' E 174°46'4 7.3
2017-Oct-20 19:31S 36°30' E 174°44'0 0.2
2017-Oct-20 19:00S 36°30' E 174°44'0 0.0
2017-Oct-20 18:30S 36°30' E 174°44'0 0.0
2017-Oct-20 18:00S 36°30' E 174°44'0 0.1
2017-Oct-20 17:30S 36°30' E 174°44'0 0.1
2017-Oct-20 17:00S 36°30' E 174°44'0 0.0
2017-Oct-20 16:30S 36°30' E 174°44'0 0.1
2017-Oct-20 16:00S 36°30' E 174°44'0 0.0
2017-Oct-20 15:30S 36°30' E 174°44'0 0.0
2017-Oct-20 15:00S 36°30' E 174°44'0 0.0
2017-Oct-20 14:30S 36°30' E 174°44'0 0.0
2017-Oct-20 08:35S 36°30' E 174°44'0 0.1
2017-Oct-20 08:25S 36°30' E 174°44'0 0.0
2017-Oct-20 08:00S 36°30' E 174°44'0 0.0
2017-Oct-20 07:30S 36°30' E 174°44'0 0.1
2017-Oct-20 07:00S 36°30' E 174°44'0 0.0
2017-Oct-20 06:30S 36°30' E 174°44'0 0.0
2017-Oct-20 06:00S 36°30' E 174°44'0 0.0
2017-Oct-20 05:30S 36°30' E 174°44'0 0.0
2017-Oct-20 05:00S 36°30' E 174°44'0 0.0
2017-Oct-20 04:30S 36°30' E 174°44'0 0.1
2017-Oct-20 04:00S 36°30' E 174°44'0 0.0
2017-Oct-20 03:30S 36°30' E 174°44'0 0.0
2017-Oct-20 03:00S 36°30' E 174°44'0 0.0
2017-Oct-20 02:30S 36°30' E 174°44'0 0.0
2017-Oct-20 02:00S 36°30' E 174°44'1 1.2
2017-Oct-20 01:30S 36°31' E 174°44'3 6.4
2017-Oct-20 01:00S 36°32' E 174°48'3 6.6
2017-Oct-20 00:30S 36°34' E 174°52'4 7.5
2017-Oct-20 00:00S 36°35' E 174°56'4 7.6
2017-Oct-19 23:30S 36°37' E 174°60'11 0.4
2017-Oct-18 22:40S 36°48' E 174°57'0 0.1
2017-Oct-18 22:29S 36°48' E 174°57'8 6.4
2017-Oct-18 21:11S 36°50' E 174°47'1 3.5
2017-Oct-18 20:59S 36°51' E 174°46'0 0.0
2017-Oct-18 20:07S 36°51' E 174°46'0 0.0
2017-Oct-18 19:49S 36°51' E 174°46'0 0.0
2017-Oct-18 19:25S 36°51' E 174°46'0 0.0
2017-Oct-18 17:49S 36°51' E 174°46'0 0.0
2017-Oct-18 17:25S 36°51' E 174°46'0 0.0
2017-Oct-18 16:49S 36°51' E 174°46'0 0.0
2017-Oct-18 16:19S 36°51' E 174°46'0 0.0
2017-Oct-18 15:55S 36°51' E 174°46'0 0.0
2017-Oct-18 08:49S 36°51' E 174°46'0 0.0
2017-Oct-18 08:25S 36°51' E 174°46'0 0.0
2017-Oct-18 07:49S 36°51' E 174°46'0 0.0
2017-Oct-18 07:19S 36°51' E 174°46'0 0.0
2017-Oct-18 06:43S 36°51' E 174°46'0 0.0
2017-Oct-18 06:25S 36°51' E 174°46'0 0.0
2017-Oct-18 05:55S 36°51' E 174°46'0 0.0
2017-Oct-18 05:19S 36°51' E 174°46'0 0.0
2017-Oct-18 03:25S 36°51' E 174°46'0 0.0
2017-Oct-18 01:57S 36°51' E 174°46'1 1.0
2017-Oct-18 01:14S 36°50' E 174°45'1 4.6
2017-Oct-18 00:57S 36°50' E 174°47'4 7.8
2017-Oct-18 00:28S 36°49' E 174°52'6 7.6
2017-Oct-17 23:43S 36°46' E 174°58'2 8.1
2017-Oct-17 23:29S 36°46' E 174°60'7 0.3
2017-Oct-17 03:30S 36°41' E 175°06'5 0.2
2017-Oct-15 16:39S 36°47' E 175°04'0 0.0
2017-Oct-15 16:15S 36°47' E 175°04'0 0.0
2017-Oct-15 15:47S 36°47' E 175°04'0 0.0
2017-Oct-15 15:30S 36°47' E 175°04'0 0.0
2017-Oct-15 14:55S 36°47' E 175°04'0 0.0
2017-Oct-15 08:55S 36°47' E 175°04'0 0.0
2017-Oct-15 07:33S 36°47' E 175°04'6 1.0
2017-Oct-15 01:21S 36°48' E 174°57'0 0.0
2017-Oct-14 04:00S 36°48' E 174°57'3 0.5
2017-Oct-13 22:45S 36°50' E 174°55'7 1.2
2017-Oct-13 16:43S 36°51' E 174°46'0 0.0
2017-Oct-13 16:19S 36°51' E 174°46'0 0.0
2017-Oct-13 15:55S 36°51' E 174°46'0 0.0
2017-Oct-13 15:25S 36°51' E 174°46'0 0.0
2017-Oct-13 14:31S 36°51' E 174°46'0 0.0
2017-Oct-13 14:25S 36°51' E 174°46'0 0.0
2017-Oct-13 13:43S 36°51' E 174°46'0 0.0
2017-Oct-13 13:25S 36°51' E 174°46'0 0.0
2017-Oct-13 12:55S 36°51' E 174°46'0 0.0
2017-Oct-13 12:19S 36°51' E 174°46'0 0.0
2017-Oct-13 11:55S 36°51' E 174°46'0 0.0
2017-Oct-13 11:13S 36°51' E 174°46'0 0.0
2017-Oct-13 02:59S 36°51' E 174°46'1 1.4
2017-Oct-13 02:29S 36°50' E 174°46'1 2.2
2017-Oct-13 01:55S 36°50' E 174°47'1 0.9
2017-Oct-13 00:37S 36°50' E 174°46'0 0.3
2017-Oct-12 22:53S 36°51' E 174°46'3 6.5
2017-Oct-12 22:25S 36°50' E 174°49'0 0.6
2017-Oct-12 22:00S 36°49' E 174°49'3 2.1
2017-Oct-12 20:34S 36°50' E 174°46'0 5.5
2017-Oct-12 20:29S 36°50' E 174°46'0 0.0
2017-Oct-12 17:55S 36°50' E 174°46'1 2.8
2017-Oct-12 17:30S 36°50' E 174°47'1 1.6
2017-Oct-12 16:57S 36°51' E 174°48'0 0.1
2017-Oct-12 16:21S 36°51' E 174°48'0 0.0
2017-Oct-12 15:51S 36°51' E 174°48'0 0.0
2017-Oct-12 15:27S 36°51' E 174°48'  
Track history (hours):
 
Tides and Currents Weather Stations Pressure Air Temp Water Temp Dewpoint Dewpoint Depression Visibility Wind Speed Wind Dir Waves Ship Positions

Spirit of New Zealand

Last reported at 2017-Oct-22 14:43 UTC. Time now 2017-Oct-22 19:21 UTC.
Position S 36°48' E 174°57'.

Length 45 m; draft 4.1 m.

Type: Passenger vessel. MMSI: 512201000.

Date/timePositionNaut miles runAvg speedWind from/ knotsBaromVisibWave heightAir tempDewpointWater temp
2017-Oct-22 14:43S 36°48' E 174°57'0 0.0
2017-Oct-22 14:24S 36°48' E 174°57'0 0.0
2017-Oct-22 08:26S 36°48' E 174°57'0 0.1
2017-Oct-22 07:31S 36°48' E 174°57'0 0.0
2017-Oct-22 07:28S 36°48' E 174°57'0 0.0
2017-Oct-22 07:00S 36°48' E 174°57'0 0.0
2017-Oct-22 06:30S 36°48' E 174°57'0 0.0
2017-Oct-22 04:50S 36°48' E 174°57'0 0.1
2017-Oct-22 04:30S 36°48' E 174°57'0 0.1
2017-Oct-22 04:00S 36°48' E 174°57'1 0.3
2017-Oct-21 23:58S 36°49' E 174°58'4 8.0
2017-Oct-21 23:30S 36°45' E 174°57'4 7.3
2017-Oct-21 22:59S 36°42' E 174°55'4 7.7
2017-Oct-21 22:30S 36°38' E 174°53'4 7.6
2017-Oct-21 22:00S 36°35' E 174°51'4 7.3
2017-Oct-21 21:30S 36°33' E 174°47'4 7.3
2017-Oct-21 21:00S 36°30' E 174°44'0 0.3
2017-Oct-21 20:22S 36°30' E 174°44'0 0.0
2017-Oct-21 19:58S 36°30' E 174°44'0 0.1
2017-Oct-21 19:28S 36°30' E 174°44'0 0.1
2017-Oct-21 18:58S 36°30' E 174°44'0 0.0
2017-Oct-21 18:28S 36°30' E 174°44'0 0.0
2017-Oct-21 17:58S 36°30' E 174°44'0 0.0
2017-Oct-21 17:28S 36°30' E 174°44'0 0.1
2017-Oct-21 16:58S 36°30' E 174°44'0 0.0
2017-Oct-21 16:22S 36°30' E 174°44'0 0.0
2017-Oct-21 15:58S 36°30' E 174°44'0 0.0
2017-Oct-21 14:22S 36°30' E 174°44'0 0.1
2017-Oct-21 13:28S 36°30' E 174°44'0 0.0
2017-Oct-21 11:40S 36°30' E 174°44'0 0.0
2017-Oct-21 11:10S 36°30' E 174°44'0 0.0
2017-Oct-21 09:52S 36°30' E 174°44'0 0.0
2017-Oct-21 09:28S 36°30' E 174°44'0 0.1
2017-Oct-21 08:58S 36°30' E 174°44'0 0.0
2017-Oct-21 08:28S 36°30' E 174°44'0 0.0
2017-Oct-21 07:58S 36°30' E 174°44'0 0.0
2017-Oct-21 07:28S 36°30' E 174°44'0 0.1
2017-Oct-21 06:58S 36°30' E 174°44'0 0.1
2017-Oct-21 06:28S 36°30' E 174°44'0 0.0
2017-Oct-21 05:58S 36°30' E 174°44'0 0.1
2017-Oct-21 05:28S 36°30' E 174°44'0 0.1
2017-Oct-21 04:58S 36°30' E 174°44'0 0.0
2017-Oct-21 04:28S 36°30' E 174°44'0 0.1
2017-Oct-21 03:58S 36°30' E 174°44'0 0.3
2017-Oct-21 03:14S 36°30' E 174°44'0 0.2
2017-Oct-21 02:56S 36°30' E 174°44'0 0.0
2017-Oct-20 21:32S 36°30' E 174°44'0 0.1
2017-Oct-20 21:28S 36°30' E 174°44'1 2.2
2017-Oct-20 21:00S 36°30' E 174°45'3 5.9
2017-Oct-20 20:30S 36°27' E 174°46'0 0.6
2017-Oct-20 20:00S 36°28' E 174°46'4 7.3
2017-Oct-20 19:31S 36°30' E 174°44'0 0.2
2017-Oct-20 19:00S 36°30' E 174°44'0 0.0
2017-Oct-20 18:30S 36°30' E 174°44'0 0.0
2017-Oct-20 18:00S 36°30' E 174°44'0 0.1
2017-Oct-20 17:30S 36°30' E 174°44'0 0.1
2017-Oct-20 17:00S 36°30' E 174°44'0 0.0
2017-Oct-20 16:30S 36°30' E 174°44'0 0.1
2017-Oct-20 16:00S 36°30' E 174°44'0 0.0
2017-Oct-20 15:30S 36°30' E 174°44'0 0.0
2017-Oct-20 15:00S 36°30' E 174°44'0 0.0
2017-Oct-20 14:30S 36°30' E 174°44'0 0.0
2017-Oct-20 08:35S 36°30' E 174°44'0 0.1
2017-Oct-20 08:25S 36°30' E 174°44'0 0.0
2017-Oct-20 08:00S 36°30' E 174°44'0 0.0
2017-Oct-20 07:30S 36°30' E 174°44'0 0.1
2017-Oct-20 07:00S 36°30' E 174°44'0 0.0
2017-Oct-20 06:30S 36°30' E 174°44'0 0.0
2017-Oct-20 06:00S 36°30' E 174°44'0 0.0
2017-Oct-20 05:30S 36°30' E 174°44'0 0.0
2017-Oct-20 05:00S 36°30' E 174°44'0 0.0
2017-Oct-20 04:30S 36°30' E 174°44'0 0.1
2017-Oct-20 04:00S 36°30' E 174°44'0 0.0
2017-Oct-20 03:30S 36°30' E 174°44'0 0.0
2017-Oct-20 03:00S 36°30' E 174°44'0 0.0
2017-Oct-20 02:30S 36°30' E 174°44'0 0.0
2017-Oct-20 02:00S 36°30' E 174°44'1 1.2
2017-Oct-20 01:30S 36°31' E 174°44'3 6.4
2017-Oct-20 01:00S 36°32' E 174°48'3 6.6
2017-Oct-20 00:30S 36°34' E 174°52'4 7.5
2017-Oct-20 00:00S 36°35' E 174°56'4 7.6
2017-Oct-19 23:30S 36°37' E 174°60'11 0.4
2017-Oct-18 22:40S 36°48' E 174°57'0 0.1
2017-Oct-18 22:29S 36°48' E 174°57'8 6.4
2017-Oct-18 21:11S 36°50' E 174°47'1 3.5
2017-Oct-18 20:59S 36°51' E 174°46'0 0.0
2017-Oct-18 20:07S 36°51' E 174°46'0 0.0
2017-Oct-18 19:49S 36°51' E 174°46'0 0.0
2017-Oct-18 19:25S 36°51' E 174°46'0 0.0
2017-Oct-18 17:49S 36°51' E 174°46'0 0.0
2017-Oct-18 17:25S 36°51' E 174°46'0 0.0
2017-Oct-18 16:49S 36°51' E 174°46'0 0.0
2017-Oct-18 16:19S 36°51' E 174°46'0 0.0
2017-Oct-18 15:55S 36°51' E 174°46'0 0.0
2017-Oct-18 08:49S 36°51' E 174°46'0 0.0
2017-Oct-18 08:25S 36°51' E 174°46'0 0.0
2017-Oct-18 07:49S 36°51' E 174°46'0 0.0
2017-Oct-18 07:19S 36°51' E 174°46'0 0.0
2017-Oct-18 06:43S 36°51' E 174°46'0 0.0
2017-Oct-18 06:25S 36°51' E 174°46'0 0.0
2017-Oct-18 05:55S 36°51' E 174°46'0 0.0
2017-Oct-18 05:19S 36°51' E 174°46'0 0.0
2017-Oct-18 03:25S 36°51' E 174°46'0 0.0
2017-Oct-18 01:57S 36°51' E 174°46'1 1.0
2017-Oct-18 01:14S 36°50' E 174°45'1 4.6
2017-Oct-18 00:57S 36°50' E 174°47'4 7.8
2017-Oct-18 00:28S 36°49' E 174°52'6 7.6
2017-Oct-17 23:43S 36°46' E 174°58'2 8.1
2017-Oct-17 23:29S 36°46' E 174°60'7 0.3
2017-Oct-17 03:30S 36°41' E 175°06'5 0.2
2017-Oct-15 16:39S 36°47' E 175°04'0 0.0
2017-Oct-15 16:15S 36°47' E 175°04'0 0.0
2017-Oct-15 15:47S 36°47' E 175°04'0 0.0
2017-Oct-15 15:30S 36°47' E 175°04'0 0.0
2017-Oct-15 14:55S 36°47' E 175°04'0 0.0
2017-Oct-15 08:55S 36°47' E 175°04'0 0.0
2017-Oct-15 07:33S 36°47' E 175°04'6 1.0
2017-Oct-15 01:21S 36°48' E 174°57'0 0.0
2017-Oct-14 04:00S 36°48' E 174°57'3 0.5
2017-Oct-13 22:45S 36°50' E 174°55'7 1.2
2017-Oct-13 16:43S 36°51' E 174°46'0 0.0
2017-Oct-13 16:19S 36°51' E 174°46'0 0.0
2017-Oct-13 15:55S 36°51' E 174°46'0 0.0
2017-Oct-13 15:25S 36°51' E 174°46'0 0.0
2017-Oct-13 14:31S 36°51' E 174°46'0 0.0
2017-Oct-13 14:25S 36°51' E 174°46'0 0.0
2017-Oct-13 13:43S 36°51' E 174°46'0 0.0
2017-Oct-13 13:25S 36°51' E 174°46'0 0.0
2017-Oct-13 12:55S 36°51' E 174°46'0 0.0
2017-Oct-13 12:19S 36°51' E 174°46'0 0.0
2017-Oct-13 11:55S 36°51' E 174°46'0 0.0
2017-Oct-13 11:13S 36°51' E 174°46'0 0.0
2017-Oct-13 02:59S 36°51' E 174°46'1 1.4
2017-Oct-13 02:29S 36°50' E 174°46'1 2.2
2017-Oct-13 01:55S 36°50' E 174°47'1 0.9
2017-Oct-13 00:37S 36°50' E 174°46'0 0.3
2017-Oct-12 22:53S 36°51' E 174°46'3 6.5
2017-Oct-12 22:25S 36°50' E 174°49'0 0.6
2017-Oct-12 22:00S 36°49' E 174°49'3 2.1
2017-Oct-12 20:34S 36°50' E 174°46'0 5.5
2017-Oct-12 20:29S 36°50' E 174°46'0 0.0
2017-Oct-12 17:55S 36°50' E 174°46'1 2.8
2017-Oct-12 17:30S 36°50' E 174°47'1 1.6
2017-Oct-12 16:57S 36°51' E 174°48'0 0.1
2017-Oct-12 16:21S 36°51' E 174°48'0 0.0
2017-Oct-12 15:51S 36°51' E 174°48'0 0.0
2017-Oct-12 15:27S 36°51' E 174°48'  

Dump ship's entire track history